createdAt,value
2022-09-06T00:01:11.659Z,61.77
2022-09-06T00:03:40.647Z,61.75
2022-09-06T00:06:14.780Z,61.83
2022-09-06T00:08:45.343Z,61.20
2022-09-06T00:11:14.122Z,61.63
2022-09-06T00:13:42.532Z,61.25
2022-09-06T00:16:14.601Z,61.15
2022-09-06T00:18:43.187Z,61.27
2022-09-06T00:21:19.184Z,61.18
2022-09-06T00:23:47.649Z,61.27
2022-09-06T00:26:16.414Z,61.93
2022-09-06T00:28:44.965Z,61.64
2022-09-06T00:31:15.564Z,61.95
2022-09-06T00:33:44.592Z,61.89
2022-09-06T00:36:15.409Z,62.07
2022-09-06T00:38:44.070Z,61.77
2022-09-06T00:41:15.700Z,61.81
2022-09-06T00:43:44.522Z,61.92
2022-09-06T00:46:18.963Z,61.46
2022-09-06T00:48:50.760Z,62.28
2022-09-06T00:51:25.449Z,61.36
2022-09-06T00:53:53.882Z,62.18
2022-09-06T00:56:22.571Z,61.94
2022-09-06T00:58:51.403Z,62.30
2022-09-06T01:01:19.795Z,62.70
2022-09-06T01:03:48.074Z,62.63
2022-09-06T01:06:29.213Z,62.86
2022-09-06T01:09:11.329Z,62.95
2022-09-06T01:12:05.773Z,63.05
2022-09-06T01:14:52.468Z,62.72
2022-09-06T01:17:34.508Z,62.93
2022-09-06T01:20:33.444Z,63.36
2022-09-06T01:24:04.369Z,63.78
2022-09-06T01:27:36.125Z,63.07
2022-09-06T01:30:09.455Z,63.03
2022-09-06T01:32:54.706Z,62.53
2022-09-06T01:35:34.424Z,62.85
2022-09-06T01:38:03.783Z,62.42
2022-09-06T01:40:35.666Z,62.11
2022-09-06T01:43:10.216Z,61.74
2022-09-06T01:45:58.119Z,61.89
2022-09-06T01:48:48.381Z,62.09
2022-09-06T01:51:27.497Z,62.58
2022-09-06T01:54:27.687Z,62.47
2022-09-06T01:57:14.527Z,62.10
2022-09-06T02:00:02.869Z,62.95
2022-09-06T02:02:46.864Z,62.61
2022-09-06T02:05:24.385Z,63.35
2022-09-06T02:07:59.087Z,62.78
2022-09-06T02:10:35.043Z,63.46
2022-09-06T02:13:07.386Z,63.44
2022-09-06T02:15:39.572Z,63.35
2022-09-06T02:18:17.101Z,63.61
2022-09-06T02:20:52.654Z,63.80
2022-09-06T02:23:27.409Z,64.34
2022-09-06T02:26:02.595Z,63.75
2022-09-06T02:28:30.798Z,63.85
2022-09-06T02:31:04.857Z,63.87
2022-09-06T02:33:35.904Z,64.34
2022-09-06T02:36:09.598Z,64.27
2022-09-06T02:38:41.460Z,63.85
2022-09-06T02:41:10.761Z,63.92
2022-09-06T02:43:38.841Z,63.69
2022-09-06T02:46:07.219Z,64.22
2022-09-06T02:48:36.745Z,64.28
2022-09-06T02:51:05.686Z,64.10
2022-09-06T02:53:34.199Z,64.26
2022-09-06T02:56:03.414Z,64.13
2022-09-06T02:58:31.445Z,64.20
2022-09-06T03:00:59.691Z,64.64
2022-09-06T03:03:28.507Z,65.18
2022-09-06T03:05:57.977Z,65.11
2022-09-06T03:08:29.261Z,65.38
2022-09-06T03:10:58.136Z,65.37
2022-09-06T03:13:27.040Z,65.09
2022-09-06T03:15:57.705Z,64.77
2022-09-06T03:18:27.308Z,65.74
2022-09-06T03:20:58.058Z,65.83
2022-09-06T03:23:28.509Z,65.63
2022-09-06T03:25:57.236Z,66.13
2022-09-06T03:28:25.744Z,65.34
2022-09-06T03:30:54.792Z,65.83
2022-09-06T03:33:23.021Z,66.54
2022-09-06T03:35:53.949Z,66.54
2022-09-06T03:38:24.636Z,66.56
2022-09-06T03:40:53.209Z,66.33
2022-09-06T03:43:23.460Z,66.11
2022-09-06T03:45:54.772Z,65.83
2022-09-06T03:48:25.350Z,65.77
2022-09-06T03:50:57.803Z,65.78
2022-09-06T03:53:29.055Z,65.93
2022-09-06T03:55:58.615Z,65.22
2022-09-06T03:58:31.168Z,65.59
2022-09-06T04:01:07.995Z,65.00
2022-09-06T04:03:37.032Z,65.63
2022-09-06T04:06:06.821Z,65.84
2022-09-06T04:08:38.137Z,66.12
2022-09-06T04:11:07.271Z,64.92
2022-09-06T04:13:36.719Z,65.36
2022-09-06T04:16:06.335Z,65.28
2022-09-06T04:18:34.804Z,65.02
2022-09-06T04:21:02.982Z,64.92
2022-09-06T04:23:33.475Z,65.97
2022-09-06T04:26:04.831Z,65.28
2022-09-06T04:28:33.079Z,65.09
2022-09-06T04:31:05.140Z,64.83
2022-09-06T04:33:36.396Z,64.75
2022-09-06T04:36:08.185Z,64.67
2022-09-06T04:38:39.174Z,64.55
2022-09-06T04:41:10.901Z,64.00
2022-09-06T04:43:39.114Z,64.30
2022-09-06T04:46:10.627Z,64.27
2022-09-06T04:48:38.729Z,64.95
2022-09-06T04:51:07.261Z,64.36
2022-09-06T04:53:35.334Z,63.77
2022-09-06T04:56:04.108Z,63.47
2022-09-06T04:58:33.694Z,63.07
2022-09-06T05:01:01.777Z,62.79
2022-09-06T05:03:29.813Z,63.01
2022-09-06T05:06:10.003Z,63.76
2022-09-06T05:08:39.526Z,64.04
2022-09-06T05:11:08.839Z,63.85
2022-09-06T05:13:39.283Z,63.58
2022-09-06T05:16:09.912Z,63.31
2022-09-06T05:18:38.044Z,63.57
2022-09-06T05:21:07.561Z,63.27
2022-09-06T05:23:35.595Z,63.38
2022-09-06T05:26:03.727Z,63.62
2022-09-06T05:28:31.991Z,64.01
2022-09-06T05:31:09.890Z,64.46
2022-09-06T05:33:38.831Z,63.64
2022-09-06T05:36:08.622Z,64.10
2022-09-06T05:38:36.672Z,63.91
2022-09-06T05:41:04.819Z,64.04
2022-09-06T05:43:32.836Z,63.52
2022-09-06T05:46:01.031Z,63.52
2022-09-06T05:48:36.091Z,64.31
2022-09-06T05:51:08.256Z,63.74
2022-09-06T05:53:37.035Z,62.65
2022-09-06T05:56:06.674Z,63.33
2022-09-06T05:58:34.748Z,63.23
2022-09-06T06:01:08.887Z,63.59
2022-09-06T06:03:38.956Z,63.58
2022-09-06T06:06:07.685Z,63.84
2022-09-06T06:08:36.829Z,63.64
2022-09-06T06:11:04.988Z,63.13
2022-09-06T06:13:35.000Z,62.87
2022-09-06T06:16:04.408Z,62.74
2022-09-06T06:18:32.566Z,63.11
2022-09-06T06:21:14.186Z,62.93
2022-09-06T06:23:44.317Z,63.24
2022-09-06T06:26:14.026Z,62.87
2022-09-06T06:28:42.344Z,63.48
2022-09-06T06:31:13.052Z,63.38
2022-09-06T06:33:41.676Z,62.82
2022-09-06T06:36:24.376Z,61.76
2022-09-06T06:38:55.202Z,61.92
2022-09-06T06:41:25.764Z,61.80
2022-09-06T06:43:54.521Z,61.92
2022-09-06T06:46:24.958Z,61.50
2022-09-06T06:48:55.258Z,61.86
2022-09-06T06:51:28.287Z,62.04
2022-09-06T06:53:57.803Z,62.01
2022-09-06T06:56:28.823Z,61.75
2022-09-06T06:58:59.625Z,61.64
2022-09-06T07:01:30.575Z,61.35
2022-09-06T07:04:00.436Z,60.40
2022-09-06T07:09:21.152Z,59.77
2022-09-06T07:11:49.910Z,58.97
2022-09-06T07:14:19.086Z,58.51
2022-09-06T07:16:47.219Z,58.12
2022-09-06T07:22:05.882Z,58.64
2022-09-06T07:24:34.878Z,58.43
2022-09-06T07:29:51.010Z,57.40
2022-09-06T07:32:19.003Z,57.62
2022-09-06T07:34:47.169Z,56.79
2022-09-06T07:37:16.676Z,56.38
2022-09-06T07:39:44.755Z,56.26
2022-09-06T07:42:12.767Z,56.83
2022-09-06T07:44:40.799Z,55.23
2022-09-06T07:55:35.718Z,54.91
2022-09-06T07:58:03.744Z,54.96
2022-09-06T08:00:31.889Z,54.34
2022-09-06T08:03:00.257Z,54.03
2022-09-06T08:11:07.499Z,54.22
2022-09-06T08:13:36.382Z,54.38
2022-09-06T08:16:07.092Z,53.97
2022-09-06T08:18:36.500Z,54.01
2022-09-06T08:21:12.734Z,53.64
2022-09-06T08:23:47.212Z,53.16
2022-09-06T08:26:16.097Z,53.14
2022-09-06T08:28:44.395Z,53.33
2022-09-06T08:31:14.770Z,53.23
2022-09-06T08:33:44.017Z,52.87
2022-09-06T08:36:12.751Z,52.70
2022-09-06T08:38:42.460Z,53.02
2022-09-06T08:41:20.101Z,53.15
2022-09-06T08:46:53.155Z,53.50
2022-09-06T08:49:21.751Z,53.44
2022-09-06T08:52:19.049Z,52.49
2022-09-06T08:54:56.454Z,51.77
2022-09-06T08:57:46.588Z,51.52
2022-09-06T09:00:15.467Z,50.21
2022-09-06T09:02:52.146Z,50.31
2022-09-06T09:05:30.896Z,50.30
2022-09-06T09:08:14.584Z,50.71
2022-09-06T09:10:49.954Z,51.22
2022-09-06T09:13:30.683Z,52.74
2022-09-06T09:15:59.593Z,53.13
2022-09-06T09:18:33.465Z,52.57
2022-09-06T09:21:01.739Z,50.96
2022-09-06T09:23:31.885Z,51.03
2022-09-06T09:26:07.059Z,50.61
2022-09-06T09:28:35.824Z,50.50
2022-09-06T09:31:04.674Z,50.56
2022-09-06T09:33:36.947Z,50.36
2022-09-06T09:36:12.032Z,50.74
2022-09-06T09:38:45.343Z,50.84
2022-09-06T09:41:30.221Z,50.94
2022-09-06T09:44:04.751Z,50.90
2022-09-06T09:46:35.860Z,50.59
2022-09-06T09:49:11.411Z,50.62
2022-09-06T09:51:42.100Z,50.31
2022-09-06T09:54:12.950Z,50.41
2022-09-06T09:56:49.136Z,50.76
2022-09-06T09:59:26.850Z,50.64
2022-09-06T10:02:00.021Z,50.77
2022-09-06T10:07:18.524Z,50.57
2022-09-06T10:09:49.948Z,50.83
2022-09-06T10:12:29.883Z,50.72
2022-09-06T10:15:00.209Z,51.13
2022-09-06T10:17:34.106Z,50.47
2022-09-06T10:20:09.147Z,50.51
2022-09-06T10:22:52.714Z,50.51
2022-09-06T10:25:49.004Z,50.15
2022-09-06T10:28:38.918Z,50.43
2022-09-06T10:31:47.430Z,49.88
2022-09-06T10:34:57.824Z,49.80
2022-09-06T10:37:45.799Z,49.19
2022-09-06T10:40:30.265Z,49.18
2022-09-06T10:43:01.870Z,48.94
2022-09-06T10:45:46.764Z,49.93
2022-09-06T10:48:25.028Z,50.38
2022-09-06T10:50:58.579Z,49.63
2022-09-06T10:53:36.710Z,50.31
2022-09-06T10:56:11.775Z,50.41
2022-09-06T11:01:47.246Z,49.45
2022-09-06T11:04:24.684Z,48.97
2022-09-06T11:06:58.476Z,48.97
2022-09-06T11:09:35.905Z,49.18
2022-09-06T11:12:10.897Z,49.52
2022-09-06T11:14:40.382Z,49.33
2022-09-06T11:17:14.950Z,49.79
2022-09-06T11:19:52.990Z,50.33
2022-09-06T11:22:59.558Z,51.16
2022-09-06T11:25:55.125Z,51.14
2022-09-06T11:28:34.815Z,51.66
2022-09-06T11:31:04.814Z,51.70
2022-09-06T11:33:39.719Z,51.36
2022-09-06T11:36:20.551Z,51.57
2022-09-06T11:39:01.042Z,52.11
2022-09-06T11:41:33.755Z,52.30
2022-09-06T11:44:02.689Z,52.26
2022-09-06T11:47:02.964Z,52.12
2022-09-06T11:49:41.768Z,51.68
2022-09-06T11:53:00.823Z,50.69
2022-09-06T11:55:38.645Z,49.98
2022-09-06T11:58:20.551Z,49.52
2022-09-06T12:01:40.808Z,48.72
2022-09-06T12:04:11.718Z,47.86
2022-09-06T12:06:44.169Z,47.59
2022-09-06T12:09:33.758Z,47.50
2022-09-06T12:12:04.163Z,47.21
2022-09-06T12:14:39.637Z,46.76
2022-09-06T12:17:47.554Z,47.17
2022-09-06T12:21:06.909Z,47.15
2022-09-06T12:23:45.353Z,46.21
2022-09-06T12:26:13.887Z,46.35
2022-09-06T12:28:48.336Z,46.14
2022-09-06T12:31:39.543Z,46.24
2022-09-06T12:34:14.171Z,46.62
2022-09-06T12:36:59.089Z,47.71
2022-09-06T12:39:29.187Z,48.29
2022-09-06T12:42:02.008Z,49.14
2022-09-06T12:44:35.130Z,49.24
2022-09-06T12:47:14.944Z,49.15
2022-09-06T12:49:43.177Z,49.09
2022-09-06T12:52:16.071Z,49.33
2022-09-06T12:54:49.514Z,49.45
2022-09-06T12:57:22.457Z,49.31
2022-09-06T12:59:55.995Z,49.21
2022-09-06T13:02:38.683Z,48.22
2022-09-06T13:05:11.072Z,48.09
2022-09-06T13:07:45.310Z,46.94
2022-09-06T13:10:20.335Z,45.98
2022-09-06T13:12:53.003Z,46.21
2022-09-06T13:15:26.137Z,45.94
2022-09-06T13:17:56.621Z,45.45
2022-09-06T13:20:29.225Z,45.88
2022-09-06T13:23:10.925Z,46.10
2022-09-06T13:25:50.667Z,46.49
2022-09-06T13:28:28.145Z,46.81
2022-09-06T13:31:10.583Z,47.31
2022-09-06T13:33:39.091Z,47.70
2022-09-06T13:36:22.724Z,47.68
2022-09-06T13:38:51.687Z,47.83
2022-09-06T13:41:42.259Z,47.88
2022-09-06T13:44:29.622Z,48.23
2022-09-06T13:46:58.110Z,48.36
2022-09-06T13:49:27.206Z,48.38
2022-09-06T13:52:00.198Z,48.48
2022-09-06T13:54:28.596Z,48.54
2022-09-06T13:56:58.450Z,48.44
2022-09-06T13:59:26.972Z,48.99
2022-09-06T14:02:02.304Z,48.79
2022-09-06T14:04:31.831Z,49.35
2022-09-06T14:07:00.259Z,49.87
2022-09-06T14:09:28.272Z,50.64
2022-09-06T14:11:58.119Z,51.22
2022-09-06T14:14:26.376Z,51.36
2022-09-06T14:16:54.813Z,51.55
2022-09-06T14:19:23.180Z,51.38
2022-09-06T14:21:51.673Z,51.41
2022-09-06T14:24:20.141Z,50.68
2022-09-06T14:26:48.773Z,50.78
2022-09-06T14:29:18.293Z,50.20
2022-09-06T14:31:48.297Z,49.45
2022-09-06T14:34:16.686Z,48.45
2022-09-06T14:36:44.825Z,47.88
2022-09-06T14:39:12.908Z,47.85
2022-09-06T14:41:41.134Z,48.35
2022-09-06T14:44:10.020Z,47.69
2022-09-06T14:46:39.710Z,47.83
2022-09-06T14:49:11.134Z,48.72
2022-09-06T14:51:40.623Z,49.54
2022-09-06T14:54:12.216Z,50.00
2022-09-06T14:56:44.085Z,50.09
2022-09-06T14:59:12.826Z,50.47
2022-09-06T15:01:42.445Z,50.89
2022-09-06T15:04:12.413Z,51.10
2022-09-06T15:06:44.868Z,51.10
2022-09-06T15:09:13.122Z,51.44
2022-09-06T15:11:44.562Z,51.73
2022-09-06T15:14:17.520Z,51.75
2022-09-06T15:16:53.309Z,52.31
2022-09-06T15:19:24.782Z,53.01
2022-09-06T15:21:53.071Z,53.58
2022-09-06T15:24:21.779Z,53.38
2022-09-06T15:26:50.262Z,53.18
2022-09-06T15:29:19.180Z,52.44
2022-09-06T15:31:51.373Z,52.21
2022-09-06T15:34:21.582Z,52.40
2022-09-06T15:36:50.292Z,52.54
2022-09-06T15:39:18.914Z,53.27
2022-09-06T15:41:47.247Z,53.54
2022-09-06T15:44:18.760Z,54.05
2022-09-06T15:46:52.374Z,54.40
2022-09-06T15:49:27.616Z,54.81
2022-09-06T15:51:58.117Z,55.10
2022-09-06T15:54:47.954Z,56.37
2022-09-06T15:57:17.578Z,56.75
2022-09-06T15:59:46.529Z,57.54
2022-09-06T16:02:16.184Z,58.18
2022-09-06T16:04:44.392Z,58.28
2022-09-06T16:07:12.730Z,58.70
2022-09-06T16:09:40.910Z,58.72
2022-09-06T16:12:09.548Z,59.46
2022-09-06T16:14:39.043Z,59.05
2022-09-06T16:17:07.244Z,59.38
2022-09-06T16:19:36.716Z,59.96
2022-09-06T16:22:05.321Z,59.82
2022-09-06T16:24:33.660Z,59.83
2022-09-06T16:27:02.219Z,60.10
2022-09-06T16:29:31.768Z,60.35
2022-09-06T16:32:00.549Z,60.80
2022-09-06T16:34:28.747Z,60.97
2022-09-06T16:36:58.416Z,61.19
2022-09-06T16:39:26.953Z,61.84
2022-09-06T16:41:55.313Z,61.97
2022-09-06T16:44:23.352Z,61.95
2022-09-06T16:46:53.619Z,61.73
2022-09-06T16:49:21.796Z,61.88
2022-09-06T16:51:51.799Z,62.13
2022-09-06T16:54:21.686Z,62.46
2022-09-06T16:56:49.892Z,62.32
2022-09-06T16:59:18.061Z,62.78
2022-09-06T17:01:46.802Z,62.83
2022-09-06T17:04:16.227Z,63.07
2022-09-06T17:06:45.708Z,63.61
2022-09-06T17:09:16.306Z,63.88
2022-09-06T17:11:46.841Z,63.26
2022-09-06T17:14:14.965Z,63.34
2022-09-06T17:17:00.780Z,63.15
2022-09-06T17:19:29.698Z,63.03
2022-09-06T17:21:58.150Z,63.07
2022-09-06T17:24:27.321Z,63.69
2022-09-06T17:26:56.712Z,64.17
2022-09-06T17:29:28.040Z,64.25
2022-09-06T17:31:56.465Z,64.69
2022-09-06T17:34:24.655Z,65.02
2022-09-06T17:36:53.737Z,65.21
2022-09-06T17:39:22.871Z,65.59
2022-09-06T17:41:54.176Z,65.78
2022-09-06T17:44:26.650Z,66.17
2022-09-06T17:47:12.641Z,66.53
2022-09-06T17:49:42.253Z,66.62
2022-09-06T17:52:10.717Z,67.24
2022-09-06T17:54:38.878Z,67.57
2022-09-06T17:57:07.079Z,67.81
2022-09-06T17:59:36.558Z,67.55
2022-09-06T18:02:05.884Z,67.62
2022-09-06T18:04:34.399Z,68.01
2022-09-06T18:07:02.554Z,68.41
2022-09-06T18:09:30.861Z,68.43
2022-09-06T18:11:59.162Z,68.82
2022-09-06T18:14:28.624Z,69.16
2022-09-06T18:16:58.332Z,69.44
2022-09-06T18:19:27.441Z,69.71
2022-09-06T18:21:57.091Z,70.11
2022-09-06T18:24:25.438Z,70.09
2022-09-06T18:26:53.580Z,70.40
2022-09-06T18:29:21.984Z,70.36
2022-09-06T18:31:53.422Z,70.74
2022-09-06T18:34:23.151Z,70.80
2022-09-06T18:36:51.353Z,70.89
2022-09-06T18:39:20.340Z,70.88
2022-09-06T18:42:11.034Z,70.78
2022-09-06T18:44:40.577Z,70.53
2022-09-06T18:47:12.141Z,71.27
2022-09-06T18:49:44.172Z,71.36
2022-09-06T18:52:12.637Z,71.80
2022-09-06T18:54:40.713Z,72.06
2022-09-06T18:57:08.975Z,72.20
2022-09-06T18:59:37.104Z,71.92
2022-09-06T19:02:05.296Z,71.86
2022-09-06T19:04:33.555Z,72.16
2022-09-06T19:07:04.890Z,72.33
2022-09-06T19:09:33.053Z,72.51
2022-09-06T19:12:01.411Z,72.39
2022-09-06T19:14:29.518Z,72.13
2022-09-06T19:16:57.654Z,72.20
2022-09-06T19:19:25.873Z,72.56
2022-09-06T19:21:54.007Z,72.07
2022-09-06T19:24:24.534Z,70.52
2022-09-06T19:26:55.146Z,70.20
2022-09-06T19:29:23.866Z,69.50
2022-09-06T19:31:52.933Z,69.83
2022-09-06T19:34:22.009Z,69.30
2022-09-06T19:36:52.053Z,69.20
2022-09-06T19:39:21.399Z,69.27
2022-09-06T19:41:51.183Z,70.01
2022-09-06T19:44:20.680Z,70.51
2022-09-06T19:46:49.220Z,69.70
2022-09-06T19:49:20.096Z,70.38
2022-09-06T19:51:50.800Z,70.94
2022-09-06T19:54:20.344Z,70.10
2022-09-06T19:56:50.198Z,70.28
2022-09-06T19:59:18.718Z,70.25
2022-09-06T20:01:47.741Z,69.96
2022-09-06T20:04:17.026Z,70.14
2022-09-06T20:06:46.026Z,70.13
2022-09-06T20:09:15.863Z,70.64
2022-09-06T20:11:44.558Z,70.29
2022-09-06T20:14:14.515Z,70.80
2022-09-06T20:16:43.205Z,71.56
2022-09-06T20:19:14.864Z,71.94
2022-09-06T20:21:43.998Z,71.88
2022-09-06T20:24:12.083Z,72.15
2022-09-06T20:26:40.399Z,72.18
2022-09-06T20:29:08.819Z,72.92
2022-09-06T20:31:39.212Z,72.95
2022-09-06T20:34:07.982Z,73.07
2022-09-06T20:36:36.711Z,73.23
2022-09-06T20:39:05.656Z,73.47
2022-09-06T20:41:34.756Z,73.25
2022-09-06T20:44:03.706Z,73.35
2022-09-06T20:46:35.068Z,73.49
2022-09-06T20:49:06.576Z,74.66
2022-09-06T20:51:38.523Z,74.39
2022-09-06T20:54:07.417Z,74.25
2022-09-06T20:56:38.640Z,74.58
2022-09-06T20:59:13.657Z,75.26
2022-09-06T21:01:44.514Z,76.09
2022-09-06T21:04:16.865Z,75.89
2022-09-06T21:06:45.843Z,76.04
2022-09-06T21:09:15.736Z,76.18
2022-09-06T21:11:45.178Z,76.44
2022-09-06T21:14:13.808Z,77.21
2022-09-06T21:16:42.141Z,77.16
2022-09-06T21:19:13.499Z,77.09
2022-09-06T21:21:42.283Z,76.60
2022-09-06T21:24:12.252Z,76.83
2022-09-06T21:26:42.831Z,77.44
2022-09-06T21:29:11.423Z,77.52
2022-09-06T21:31:39.641Z,77.81
2022-09-06T21:34:16.808Z,77.75
2022-09-06T21:36:46.827Z,78.42
2022-09-06T21:39:16.032Z,78.41
2022-09-06T21:41:45.774Z,78.70
2022-09-06T21:44:13.946Z,78.15
2022-09-06T21:46:43.231Z,78.85
2022-09-06T21:49:14.268Z,79.47
2022-09-06T21:51:42.961Z,79.82
2022-09-06T21:54:12.517Z,79.82
2022-09-06T21:56:41.172Z,79.50
2022-09-06T21:59:10.885Z,80.09
2022-09-06T22:01:43.165Z,80.18
2022-09-06T22:04:14.478Z,80.40
2022-09-06T22:06:42.628Z,80.53
2022-09-06T22:09:14.124Z,81.09
2022-09-06T22:11:45.360Z,81.33
2022-09-06T22:14:15.814Z,81.85
2022-09-06T22:16:44.236Z,81.92
2022-09-06T22:19:12.898Z,82.58
2022-09-06T22:21:41.363Z,83.08
2022-09-06T22:24:12.145Z,83.31
2022-09-06T22:26:42.958Z,83.12
2022-09-06T22:29:15.050Z,83.04
2022-09-06T22:31:43.877Z,82.71
2022-09-06T22:34:12.363Z,81.92
2022-09-06T22:36:40.593Z,82.67
2022-09-06T22:39:09.496Z,83.33
2022-09-06T22:41:37.684Z,83.46
2022-09-06T22:44:07.656Z,83.46
2022-09-06T22:46:37.001Z,83.37
2022-09-06T22:49:05.440Z,83.78
2022-09-06T22:51:34.110Z,83.30
2022-09-06T22:54:02.477Z,83.98
2022-09-06T22:56:30.587Z,84.30
2022-09-06T22:59:00.801Z,84.16
2022-09-06T23:01:32.607Z,84.71
2022-09-06T23:04:01.122Z,84.37
2022-09-06T23:06:29.326Z,84.21
2022-09-06T23:08:57.482Z,84.53
2022-09-06T23:11:25.902Z,85.10
2022-09-06T23:13:57.570Z,85.93
2022-09-06T23:16:27.038Z,86.64
2022-09-06T23:18:57.403Z,86.18
2022-09-06T23:21:27.448Z,85.77
2022-09-06T23:23:57.763Z,85.61
2022-09-06T23:26:30.321Z,86.09
2022-09-06T23:28:58.587Z,86.11
2022-09-06T23:31:31.329Z,85.81
2022-09-06T23:34:02.793Z,86.39
2022-09-06T23:36:32.525Z,86.89
2022-09-06T23:39:02.113Z,86.97
2022-09-06T23:41:30.454Z,86.59
2022-09-06T23:43:58.617Z,86.73
2022-09-06T23:46:27.581Z,86.77
2022-09-06T23:48:55.806Z,86.91
2022-09-06T23:51:25.396Z,87.19
2022-09-06T23:53:53.845Z,87.51
2022-09-06T23:56:22.406Z,87.32
2022-09-06T23:58:50.560Z,87.54
